Weather observations for the past three days for
Midland, Midland International Airport
Imperial (Metric)
Date Time (cdt) Wind (mph) Vis. (mi.) Weather Sky Cond. Temperature (ºF) Relative Humidity Wind Chill (°F) Heat Index (°F) Pressure Precipitation (in)
Air Dwpt 6 hour altimeter (in) sea level (mb) 1 hr 3 hr 6 hr
Max. Min.
03 00:53 SE 9 10.00 Fair CLR 82.9 53.1 98.1 82.9 36% 82 29.97 1009.4
02 23:53 S 8 10.00 Fair CLR 84.9 53.1 33% 83 29.97 1009.4
02 22:53 SE 8 10.00 Fair CLR 87.1 52 30% 85 29.98 1009.6
02 21:53 SE 9 10.00 Fair CLR 90 52 27% 87 29.97 1009.1
02 20:53 SE 9 10.00 Fair CLR 91.9 50 24% 89 29.94 1008.6
02 19:53 SE 10 10.00 Fair CLR 96.1 50 21% 93 29.93 1008.2
02 18:53 Calm 10.00 Fair CLR 98.1 50 100 93.9 20% 95 29.94 1008.2
02 17:53 SE 10 10.00 Fair CLR 99 51.1 20% 96 29.94 1008.3
02 16:53 Calm 10.00 Fair CLR 99 51.1 20% 96 29.95 1008.6
02 15:53 SW 9 10.00 A Few Clouds FEW100 99 52 21% 96 29.97 1009.4
02 14:53 SE 13 10.00 A Few Clouds FEW100 99 52 21% 96 30 1010.2
02 13:53 SE 9 10.00 Fair CLR 97 53.1 23% 95 30.02 1011.0
02 12:53 S 10 G 23 10.00 Fair CLR 95 53.1 95 73.9 24% 93 30.05 1012.0
02 11:53 S 13 10.00 Fair CLR 93 57.9 31% 92 30.07 1012.6
02 10:53 S 16 10.00 Fair CLR 90 57.9 34% 89 30.07 1012.8
02 09:53 S 15 10.00 Fair CLR 86 59 40% 85 30.08 1012.9
02 08:53 S 9 9.00 Fair CLR 79 57.9 49% 80 30.07 1013.1
02 07:53 SE 5 9.00 Fair CLR 75 55.9 52% 78 30.06 1012.7
02 06:53 S 6 10.00 Fair CLR 75 55.9 82.9 75 52% 78 30.05 1012.3
02 05:53 SE 6 10.00 Fair CLR 75 55 50% 78 30.05 1012.2
02 04:53 SE 5 10.00 Fair CLR 75.9 54 47% 78 30.05 1012.0
02 03:53 SE 5 10.00 Fair CLR 78.1 54 43% 79 30.05 1012.0
02 02:53 SE 5 10.00 Fair CLR 79 54 42% 79 30.05 1012.0
02 01:53 SE 5 10.00 Fair CLR 80.1 54 41% 80 30.04 1011.7
02 00:53 SE 8 10.00 A Few Clouds FEW110 82.9 54 95 82.9 37% 82 30.04 1011.5
01 23:53 SE 12 10.00 Partly Cloudy SCT110 86 54 33% 84 30.04 1011.5
01 22:53 SE 13 10.00 Partly Cloudy SCT120 87.1 53.1 31% 85 30.04 1011.7
01 21:53 SE 9 10.00 A Few Clouds FEW120 89.1 53.1 29% 87 30.01 1010.9
01 20:53 SE 12 10.00 A Few Clouds FEW100 91 53.1 27% 89 29.98 1010.0
01 19:53 SE 15 10.00 A Few Clouds FEW110 93.9 54 26% 92 29.97 1009.5
01 18:53 SE 17 G 23 10.00 Mostly Cloudy BKN095 96.1 54 98.1 91.9 24% 94 29.96 1009.2
01 17:53 SE 6 10.00 Fair CLR 96.1 54 24% 94 29.96 1009.0
01 16:53 SE 20 G 28 10.00 A Few Clouds FEW100 98.1 54 23% 96 29.97 1009.2
01 15:53 SE 12 G 20 10.00 Mostly Cloudy BKN100 96.1 54 24% 94 30 1010.1
01 14:53 S 10 G 25 10.00 Fair CLR 95 55.9 27% 93 30.02 1011.1
01 13:53 S 13 G 25 10.00 Fair CLR 95 57 28% 94 30.04 1011.7
01 12:53 S 14 10.00 Fair CLR 91.9 60.1 93 75.9 34% 92 30.06 1012.4
01 11:53 S 20 G 25 9.00 Fair CLR 90 61 38% 90 30.08 1013.0
01 10:53 S 16 9.00 Fair CLR 87.1 62.1 43% 88 30.08 1013.2
01 09:53 S 15 9.00 Fair CLR 82.9 63 51% 84 30.08 1013.2
01 08:53 S 16 9.00 Fair CLR 79 64 60% 81 30.08 1013.4
01 07:53 SE 10 9.00 Fair CLR 77 62.1 60% 79 30.08 1013.3
01 06:53 SE 13 10.00 Mostly Cloudy BKN090 77 62.1 82.9 77 60% 79 30.06 1012.6
01 05:53 SE 9 10.00 Fair CLR 78.1 60.1 54% 79 30.06 1012.5
01 04:53 SE 12 10.00 Fair CLR 79 60.1 52% 80 30.05 1012.1
01 03:53 S 8 10.00 Partly Cloudy SCT075 79 60.1 52% 80 30.05 1011.9
01 02:53 SE 12 10.00 Fair CLR 80.1 59 49% 81 30.04 1011.6
01 01:53 SE 10 10.00 Fair CLR 81 57 44% 81 30.04 1011.9
01 00:53 SE 8 10.00 Fair CLR 82.9 57 95 82.9 41% 82 30.03 1011.6
31 23:53 SE 10 10.00 Fair CLR 84.9 57 39% 84 30.03 1011.3
31 22:53 S 14 10.00 Fair CLR 87.1 55.9 35% 86 30.02 1011.3
31 21:53 SE 15 10.00 Fair CLR 88 55 33% 86 29.99 1010.4
31 20:53 SE 14 10.00 Fair CLR 90 52 27% 87 29.96 1009.1
31 19:53 SE 16 10.00 Fair CLR 93 53.1 26% 91 29.95 1008.8
31 18:53 SE 18 G 24 10.00 A Few Clouds FEW090 95 55 98.1 91 26% 93 29.95 1008.7
31 17:53 SE 17 G 25 10.00 Fair CLR 96.1 57 27% 95 29.95 1008.7
31 16:53 SE 15 G 21 10.00 A Few Clouds FEW085 97 55.9 25% 95 29.97 1009.1
31 15:53 SE 14 G 26 10.00 A Few Clouds FEW080 96.1 57.9 28% 95 29.99 1009.9
31 14:53 S 10 G 21 10.00 A Few Clouds FEW075 96.1 57.9 28% 95 30.01 1010.6
31 13:53 Vrbl 7 G 21 10.00 A Few Clouds FEW070 91.9 59 33% 91 30.03 1011.4
31 12:53 SE 17 10.00 Fair CLR 91 63 91 75.9 39% 92 30.05 1012.0
31 11:53 S 15 10.00 Fair CLR 89.1 64.9 45% 91 30.07 1012.9
31 10:53 S 12 10.00 Fair CLR 84 66 55% 86 30.07 1013.0
31 09:53 S 14 10.00 Fair CLR 81 66.9 62% 83 30.06 1012.8
31 08:53 S 14 10.00 Fair CLR 77 66.9 71% 79 30.06 1012.7
31 07:53 S 12 10.00 Fair CLR 75.9 64.9 69% 78 30.04 1011.9
31 06:53 S 13 10.00 Fair CLR 77 64 84 77 64% 79 30.03 1011.4
31 05:53 S 15 10.00 Fair CLR 78.1 62.1 58% 80 30.02 1010.9
31 04:53 S 20 10.00 Fair CLR 79 60.1 52% 80 30.02 1010.8
31 03:53 S 18 10.00 Fair CLR 80.1 57.9 47% 81 30.01 1010.5
31 02:53 S 12 10.00 Fair CLR 81 57 44% 81 30.01 1010.6
31 01:53 S 15 10.00 Fair CLR 82 57 43% 82 30.01 1010.5
Date Time (cdt) Wind (mph) Vis. (mi.) Weather Sky Cond. Air Dwpt Max. Min. Relative Humidity Wind Chill (°F) Heat Index (°F) altimeter (in) sea level (mb) 1 hr 3 hr 6 hr
6 hour
Temperature (ºF) Pressure Precipitation (in)